createdAt,value
2016-04-27T00:00:21.685Z,0
2016-04-27T00:01:21.749Z,0
2016-04-27T00:02:21.799Z,0
2016-04-27T00:03:21.833Z,0
2016-04-27T00:04:21.883Z,0
2016-04-27T00:05:21.948Z,0
2016-04-27T00:06:22.045Z,0
2016-04-27T00:07:22.031Z,0
2016-04-27T00:08:22.097Z,0
2016-04-27T00:09:22.146Z,0
2016-04-27T00:10:22.195Z,0
2016-04-27T00:11:22.245Z,0
2016-04-27T00:12:22.295Z,0
2016-04-27T00:13:22.345Z,0
2016-04-27T00:14:22.409Z,0
2016-04-27T00:15:22.459Z,0
2016-04-27T00:16:22.508Z,0
2016-04-27T00:17:22.542Z,0
2016-04-27T00:18:22.608Z,0
2016-04-27T00:19:22.657Z,0
2016-04-27T00:20:22.708Z,0
2016-04-27T00:21:22.756Z,0
2016-04-27T00:22:21.916Z,0
2016-04-27T00:23:22.856Z,0
2016-04-27T00:24:22.905Z,0
2016-04-27T00:25:22.955Z,0
2016-04-27T00:26:23.004Z,0
2016-04-27T00:27:23.069Z,0
2016-04-27T00:28:23.119Z,0
2016-04-27T00:29:23.153Z,0
2016-04-27T00:30:23.234Z,0
2016-04-27T00:31:23.252Z,0
2016-04-27T00:32:23.318Z,0
2016-04-27T00:33:23.368Z,0
2016-04-27T00:34:23.401Z,0
2016-04-27T00:35:23.451Z,0
2016-04-27T00:36:23.703Z,0
2016-04-27T00:37:24.471Z,0
2016-04-27T00:38:23.631Z,0
2016-04-27T00:39:23.679Z,0
2016-04-27T00:40:23.738Z,0
2016-04-27T00:41:23.777Z,0
2016-04-27T00:42:24.041Z,0
2016-04-27T00:43:23.893Z,0
2016-04-27T00:44:24.441Z,0
2016-04-27T00:45:23.996Z,0
2016-04-27T00:46:24.015Z,0
2016-04-27T00:47:24.064Z,0
2016-04-27T00:48:24.098Z,0
2016-04-27T00:49:33.757Z,0
2016-04-27T00:50:24.213Z,0
2016-04-27T00:51:26.043Z,0
2016-04-27T00:52:24.296Z,0
2016-04-27T00:53:24.361Z,0
2016-04-27T00:54:24.410Z,0
2016-04-27T00:55:24.461Z,0
2016-04-27T00:56:24.542Z,0
2016-04-27T00:57:24.559Z,0
2016-04-27T00:58:24.608Z,0
2016-04-27T00:59:24.659Z,0
2016-04-27T01:00:24.708Z,0
2016-04-27T01:01:24.758Z,0
2016-04-27T01:02:24.823Z,0
2016-04-27T01:03:24.872Z,0
2016-04-27T01:04:24.907Z,0
2016-04-27T01:05:24.971Z,0
2016-04-27T01:06:25.053Z,0
2016-04-27T01:07:25.071Z,0
2016-04-27T01:08:25.120Z,0
2016-04-27T01:09:25.171Z,0
2016-04-27T01:10:25.219Z,0
2016-04-27T01:11:25.268Z,0
2016-04-27T01:12:25.318Z,0
2016-04-27T01:13:25.368Z,0
2016-04-27T01:14:25.434Z,0
2016-04-27T01:15:25.482Z,0
2016-04-27T01:16:25.517Z,0
2016-04-27T01:17:25.598Z,0
2016-04-27T01:18:24.897Z,0
2016-04-27T01:19:25.665Z,0
2016-04-27T01:20:25.715Z,0
2016-04-27T01:21:25.327Z,0
2016-04-27T01:22:25.507Z,0
2016-04-27T01:23:30.418Z,0
2016-04-27T01:24:25.921Z,0
2016-04-27T01:25:25.970Z,0
2016-04-27T01:26:26.036Z,0
2016-04-27T01:27:26.085Z,0
2016-04-27T01:28:26.119Z,0
2016-04-27T01:29:26.169Z,0
2016-04-27T01:30:26.234Z,0
2016-04-27T01:31:26.268Z,0
2016-04-27T01:32:26.333Z,0
2016-04-27T01:33:26.367Z,0
2016-04-27T01:34:26.433Z,0
2016-04-27T01:35:26.466Z,0
2016-04-27T01:36:26.547Z,0
2016-04-27T01:37:26.566Z,0
2016-04-27T01:38:26.630Z,0
2016-04-27T01:39:26.680Z,0
2016-04-27T01:40:26.729Z,0
2016-04-27T01:41:26.795Z,0
2016-04-27T01:42:26.829Z,0
2016-04-27T01:43:26.862Z,0
2016-04-27T01:44:26.928Z,0
2016-04-27T01:45:26.978Z,0
2016-04-27T01:46:27.012Z,0
2016-04-27T01:47:27.076Z,0
2016-04-27T01:48:26.986Z,0
2016-04-27T01:49:27.177Z,0
2016-04-27T01:50:27.243Z,0
2016-04-27T01:51:28.807Z,0
2016-04-27T01:52:27.341Z,0
2016-04-27T01:53:27.391Z,0
2016-04-27T01:54:27.456Z,0
2016-04-27T01:55:27.473Z,0
2016-04-27T01:56:27.540Z,0
2016-04-27T01:57:27.589Z,0
2016-04-27T01:58:27.623Z,0
2016-04-27T01:59:27.687Z,0
2016-04-27T02:00:27.737Z,0
2016-04-27T02:01:27.787Z,0
2016-04-27T02:02:27.665Z,0
2016-04-27T02:03:27.902Z,0
2016-04-27T02:04:27.951Z,0
2016-04-27T02:05:28.001Z,0
2016-04-27T02:06:28.301Z,0
2016-04-27T02:07:28.069Z,0
2016-04-27T02:08:29.462Z,0
2016-04-27T02:09:28.184Z,0
2016-04-27T02:10:28.218Z,0
2016-04-27T02:11:28.283Z,0
2016-04-27T02:12:28.347Z,0
2016-04-27T02:13:28.429Z,0
2016-04-27T02:14:28.447Z,0
2016-04-27T02:15:28.496Z,0
2016-04-27T02:16:28.530Z,0
2016-04-27T02:17:28.596Z,0
2016-04-27T02:18:28.661Z,0
2016-04-27T02:19:28.679Z,0
2016-04-27T02:20:28.729Z,0
2016-04-27T02:21:28.404Z,0
2016-04-27T02:22:28.844Z,0
2016-04-27T02:23:28.877Z,0
2016-04-27T02:24:28.943Z,0
2016-04-27T02:25:28.977Z,0
2016-04-27T02:26:29.043Z,0
2016-04-27T02:27:29.091Z,0
2016-04-27T02:28:29.156Z,0
2016-04-27T02:29:29.207Z,0
2016-04-27T02:30:29.240Z,0
2016-04-27T02:31:29.305Z,0
2016-04-27T02:32:29.339Z,0
2016-04-27T02:33:29.389Z,0
2016-04-27T02:34:29.439Z,0
2016-04-27T02:35:29.488Z,0
2016-04-27T02:36:29.398Z,0
2016-04-27T02:37:29.602Z,0
2016-04-27T02:38:29.653Z,0
2016-04-27T02:39:29.702Z,0
2016-04-27T02:40:29.752Z,0
2016-04-27T02:41:29.817Z,0
2016-04-27T02:42:29.874Z,0
2016-04-27T02:43:29.949Z,0
2016-04-27T02:44:30.024Z,0
2016-04-27T02:45:30.133Z,0
2016-04-27T02:46:30.255Z,0
2016-04-27T02:47:30.310Z,0
2016-04-27T02:48:30.391Z,0
2016-04-27T02:49:29.706Z,0
2016-04-27T02:50:30.491Z,0
2016-04-27T02:51:30.976Z,0
2016-04-27T02:52:32.180Z,0
2016-04-27T02:53:29.939Z,0
2016-04-27T02:54:30.743Z,0
2016-04-27T02:55:30.830Z,0
2016-04-27T02:56:30.868Z,0
2016-04-27T02:57:30.173Z,0
2016-04-27T02:58:31.005Z,0
2016-04-27T02:59:31.011Z,0
2016-04-27T03:00:31.062Z,0
2016-04-27T03:01:31.129Z,0
2016-04-27T03:02:31.180Z,0
2016-04-27T03:03:31.215Z,0
2016-04-27T03:04:31.281Z,0
2016-04-27T03:05:31.362Z,0
2016-04-27T03:06:32.382Z,0
2016-04-27T03:07:32.088Z,0
2016-04-27T03:08:31.482Z,0
2016-04-27T03:09:31.517Z,0
2016-04-27T03:10:31.581Z,0
2016-04-27T03:11:31.647Z,0
2016-04-27T03:12:31.698Z,0
2016-04-27T03:13:31.748Z,0
2016-04-27T03:14:31.797Z,0
2016-04-27T03:15:31.830Z,0
2016-04-27T03:16:31.895Z,0
2016-04-27T03:17:31.945Z,0
2016-04-27T03:18:31.978Z,0
2016-04-27T03:19:32.028Z,0
2016-04-27T03:20:31.359Z,0
2016-04-27T03:21:31.987Z,0
2016-04-27T03:22:32.193Z,0
2016-04-27T03:23:32.242Z,0
2016-04-27T03:24:32.292Z,0
2016-04-27T03:25:32.373Z,0
2016-04-27T03:26:32.391Z,0
2016-04-27T03:27:32.424Z,0
2016-04-27T03:28:32.538Z,0
2016-04-27T03:29:32.540Z,0
2016-04-27T03:30:32.590Z,0
2016-04-27T03:31:32.639Z,0
2016-04-27T03:32:32.688Z,0
2016-04-27T03:33:32.754Z,0
2016-04-27T03:34:32.804Z,0
2016-04-27T03:35:32.853Z,0
2016-04-27T03:36:32.606Z,0
2016-04-27T03:37:34.827Z,0
2016-04-27T03:38:33.032Z,0
2016-04-27T03:39:33.035Z,0
2016-04-27T03:40:33.085Z,0
2016-04-27T03:41:33.150Z,0
2016-04-27T03:42:33.184Z,0
2016-04-27T03:43:33.234Z,0
2016-04-27T03:44:33.298Z,0
2016-04-27T03:45:33.333Z,0
2016-04-27T03:46:33.398Z,0
2016-04-27T03:47:33.448Z,0
2016-04-27T03:48:33.497Z,0
2016-04-27T03:49:33.547Z,0
2016-04-27T03:50:33.596Z,0
2016-04-27T03:51:33.600Z,0
2016-04-27T03:52:33.758Z,0
2016-04-27T03:53:33.745Z,0
2016-04-27T03:54:33.780Z,0
2016-04-27T03:55:33.828Z,0
2016-04-27T03:56:33.894Z,0
2016-04-27T03:57:33.943Z,0
2016-04-27T03:58:33.993Z,0
2016-04-27T03:59:34.043Z,0
2016-04-27T04:00:34.123Z,0
2016-04-27T04:01:34.141Z,0
2016-04-27T04:02:34.207Z,0
2016-04-27T04:03:34.257Z,0
2016-04-27T04:04:34.306Z,0
2016-04-27T04:05:34.372Z,0
2016-04-27T04:06:34.483Z,0
2016-04-27T04:07:34.486Z,0
2016-04-27T04:08:34.505Z,0
2016-04-27T04:09:34.555Z,0
2016-04-27T04:10:34.604Z,0
2016-04-27T04:11:34.655Z,0
2016-04-27T04:12:34.704Z,0
2016-04-27T04:13:34.752Z,0
2016-04-27T04:14:34.787Z,0
2016-04-27T04:15:34.837Z,0
2016-04-27T04:16:34.932Z,0
2016-04-27T04:17:34.952Z,0
2016-04-27T04:18:35.001Z,0
2016-04-27T04:19:35.160Z,0
2016-04-27T04:20:35.101Z,0
2016-04-27T04:21:35.274Z,0
2016-04-27T04:22:35.047Z,0
2016-04-27T04:23:35.268Z,0
2016-04-27T04:24:35.302Z,0
2016-04-27T04:25:34.601Z,0
2016-04-27T04:26:35.417Z,0
2016-04-27T04:27:35.451Z,0
2016-04-27T04:28:35.500Z,0
2016-04-27T04:29:35.550Z,0
2016-04-27T04:30:35.616Z,0
2016-04-27T04:31:35.649Z,0
2016-04-27T04:32:35.699Z,0
2016-04-27T04:33:35.763Z,0
2016-04-27T04:34:35.798Z,0
2016-04-27T04:35:35.847Z,0
2016-04-27T04:36:35.443Z,0
2016-04-27T04:37:36.978Z,0
2016-04-27T04:38:36.027Z,0
2016-04-27T04:39:36.061Z,0
2016-04-27T04:40:36.111Z,0
2016-04-27T04:41:36.160Z,0
2016-04-27T04:42:36.209Z,0
2016-04-27T04:43:36.276Z,0
2016-04-27T04:44:36.293Z,0
2016-04-27T04:45:36.359Z,0
2016-04-27T04:46:36.267Z,0
2016-04-27T04:47:36.458Z,0
2016-04-27T04:48:36.508Z,0
2016-04-27T04:49:36.556Z,0
2016-04-27T04:50:36.591Z,0
2016-04-27T04:51:42.734Z,0
2016-04-27T04:52:36.705Z,0
2016-04-27T04:53:36.756Z,0
2016-04-27T04:54:36.836Z,0
2016-04-27T04:55:36.869Z,0
2016-04-27T04:56:36.904Z,0
2016-04-27T04:57:36.953Z,0
2016-04-27T04:58:37.018Z,0
2016-04-27T04:59:37.052Z,0
2016-04-27T05:00:37.103Z,0
2016-04-27T05:01:37.168Z,0
2016-04-27T05:02:37.186Z,0
2016-04-27T05:03:37.266Z,0
2016-04-27T05:04:37.316Z,0
2016-04-27T05:05:37.366Z,0
2016-04-27T05:06:41.196Z,0
2016-04-27T05:07:37.465Z,0
2016-04-27T05:08:37.498Z,0
2016-04-27T05:09:37.564Z,0
2016-04-27T05:10:37.613Z,0
2016-04-27T05:11:37.648Z,0
2016-04-27T05:12:37.698Z,0
2016-04-27T05:13:37.762Z,0
2016-04-27T05:14:37.812Z,0
2016-04-27T05:15:37.876Z,0
2016-04-27T05:16:37.926Z,0
2016-04-27T05:17:37.960Z,0
2016-04-27T05:18:38.009Z,0
2016-04-27T05:19:38.091Z,0
2016-04-27T05:20:38.109Z,0
2016-04-27T05:21:38.862Z,0
2016-04-27T05:22:38.224Z,0
2016-04-27T05:23:38.258Z,0
2016-04-27T05:24:38.307Z,0
2016-04-27T05:25:38.372Z,0
2016-04-27T05:26:38.422Z,0
2016-04-27T05:27:38.455Z,0
2016-04-27T05:28:38.506Z,0
2016-04-27T05:29:38.571Z,0
2016-04-27T05:30:38.621Z,0
2016-04-27T05:31:38.670Z,0
2016-04-27T05:32:38.719Z,0
2016-04-27T05:33:38.769Z,0
2016-04-27T05:34:38.802Z,0
2016-04-27T05:35:38.852Z,0
2016-04-27T05:36:39.012Z,0
2016-04-27T05:37:38.952Z,0
2016-04-27T05:38:39.001Z,0
2016-04-27T05:39:39.051Z,0
2016-04-27T05:40:39.116Z,0
2016-04-27T05:41:39.165Z,0
2016-04-27T05:42:39.215Z,0
2016-04-27T05:43:39.280Z,0
2016-04-27T05:44:39.314Z,0
2016-04-27T05:45:39.364Z,0
2016-04-27T05:46:39.445Z,0
2016-04-27T05:47:39.479Z,0
2016-04-27T05:48:39.528Z,0
2016-04-27T05:49:40.640Z,0
2016-04-27T05:50:39.627Z,0
2016-04-27T05:51:39.536Z,0
2016-04-27T05:52:39.805Z,0
2016-04-27T05:53:39.776Z,0
2016-04-27T05:54:39.841Z,0
2016-04-27T05:55:39.875Z,0
2016-04-27T05:56:39.909Z,0
2016-04-27T05:57:39.975Z,0
2016-04-27T05:58:40.024Z,0
2016-04-27T05:59:40.074Z,0
2016-04-27T06:00:40.107Z,0
2016-04-27T06:01:40.172Z,0
2016-04-27T06:02:40.222Z,0
2016-04-27T06:03:40.272Z,4
2016-04-27T06:04:40.649Z,4
2016-04-27T06:05:40.355Z,4
2016-04-27T06:06:40.420Z,4
2016-04-27T06:07:41.657Z,4
2016-04-27T06:08:40.519Z,4
2016-04-27T06:09:40.568Z,4
2016-04-27T06:10:40.635Z,4
2016-04-27T06:11:40.668Z,4
2016-04-27T06:12:40.718Z,4
2016-04-27T06:13:40.768Z,4
2016-04-27T06:14:40.817Z,4
2016-04-27T06:15:40.898Z,4
2016-04-27T06:16:40.915Z,4
2016-04-27T06:17:40.215Z,4
2016-04-27T06:18:41.000Z,4
2016-04-27T06:19:41.080Z,4
2016-04-27T06:20:41.115Z,4
2016-04-27T06:21:41.320Z,4
2016-04-27T06:22:42.370Z,4
2016-04-27T06:23:41.264Z,4
2016-04-27T06:24:41.312Z,4
2016-04-27T06:25:41.378Z,4
2016-04-27T06:26:41.427Z,4
2016-04-27T06:27:41.461Z,4
2016-04-27T06:28:41.527Z,4
2016-04-27T06:29:41.560Z,4
2016-04-27T06:30:41.610Z,4
2016-04-27T06:31:41.660Z,8
2016-04-27T06:32:41.724Z,4
2016-04-27T06:33:41.758Z,4
2016-04-27T06:34:41.793Z,8
2016-04-27T06:35:41.857Z,4
2016-04-27T06:36:41.907Z,4
2016-04-27T06:37:42.190Z,4
2016-04-27T06:38:42.007Z,4
2016-04-27T06:39:42.056Z,0
2016-04-27T06:40:42.121Z,4
2016-04-27T06:41:42.171Z,4
2016-04-27T06:42:42.220Z,4
2016-04-27T06:43:42.254Z,4
2016-04-27T06:44:42.320Z,4
2016-04-27T06:45:42.353Z,0
2016-04-27T06:46:42.403Z,4
2016-04-27T06:47:42.468Z,4
2016-04-27T06:48:42.502Z,4
2016-04-27T06:49:42.552Z,8
2016-04-27T06:50:42.601Z,8
2016-04-27T06:51:42.650Z,4
2016-04-27T06:52:42.248Z,4
2016-04-27T06:53:42.765Z,4
2016-04-27T06:54:42.800Z,8
2016-04-27T06:55:42.849Z,8
2016-04-27T06:56:42.898Z,4
2016-04-27T06:57:42.964Z,4
2016-04-27T06:58:42.998Z,4
2016-04-27T06:59:43.078Z,8
2016-04-27T07:00:43.097Z,8
2016-04-27T07:01:43.147Z,8
2016-04-27T07:02:43.196Z,8
2016-04-27T07:03:43.261Z,8
2016-04-27T07:04:43.310Z,8
2016-04-27T07:05:43.344Z,8
2016-04-27T07:06:43.410Z,8
2016-04-27T07:07:44.678Z,4
2016-04-27T07:08:43.494Z,4
2016-04-27T07:09:43.574Z,4
2016-04-27T07:10:43.593Z,4
2016-04-27T07:11:43.658Z,8
2016-04-27T07:12:43.691Z,8
2016-04-27T07:13:43.741Z,4
2016-04-27T07:14:43.806Z,8
2016-04-27T07:15:43.840Z,4
2016-04-27T07:16:43.874Z,4
2016-04-27T07:17:43.940Z,4
2016-04-27T07:18:43.833Z,4
2016-04-27T07:19:44.023Z,4
2016-04-27T07:20:44.073Z,8
2016-04-27T07:21:45.294Z,4
2016-04-27T07:22:44.812Z,4
2016-04-27T07:23:44.236Z,4
2016-04-27T07:24:44.287Z,4
2016-04-27T07:25:44.320Z,4
2016-04-27T07:26:45.744Z,4
2016-04-27T07:27:44.436Z,4
2016-04-27T07:28:44.484Z,4
2016-04-27T07:29:44.533Z,4
2016-04-27T07:30:44.600Z,8
2016-04-27T07:31:46.805Z,8
2016-04-27T07:32:44.667Z,8
2016-04-27T07:33:44.733Z,8
2016-04-27T07:34:44.766Z,8
2016-04-27T07:35:44.816Z,8
2016-04-27T07:36:46.772Z,8
2016-04-27T07:37:47.321Z,8
2016-04-27T07:38:44.980Z,8
2016-04-27T07:39:45.014Z,8
2016-04-27T07:40:45.063Z,8
2016-04-27T07:41:47.457Z,4
2016-04-27T07:42:45.194Z,4
2016-04-27T07:43:45.213Z,4
2016-04-27T07:44:45.262Z,4
2016-04-27T07:45:45.326Z,8
2016-04-27T07:46:45.487Z,8
2016-04-27T07:47:45.411Z,8
2016-04-27T07:48:45.492Z,8
2016-04-27T07:49:45.541Z,8
2016-04-27T07:50:45.575Z,8
2016-04-27T07:51:49.093Z,8
2016-04-27T07:52:48.174Z,8
2016-04-27T07:53:44.973Z,4
2016-04-27T07:54:45.789Z,4
2016-04-27T07:55:45.823Z,4
2016-04-27T07:56:47.481Z,4
2016-04-27T07:57:45.922Z,4
2016-04-27T07:58:45.971Z,8
2016-04-27T07:59:46.021Z,8
2016-04-27T08:00:46.086Z,8
2016-04-27T08:01:47.620Z,12
2016-04-27T08:02:46.030Z,16
2016-04-27T08:03:46.219Z,12
2016-04-27T08:04:46.285Z,16
2016-04-27T08:05:46.318Z,16
2016-04-27T08:06:49.587Z,16
2016-04-27T08:07:47.121Z,24
2016-04-27T08:08:46.483Z,40
2016-04-27T08:09:46.501Z,48
2016-04-27T08:10:46.551Z,40
2016-04-27T08:11:50.272Z,52
2016-04-27T08:12:46.665Z,40
2016-04-27T08:13:46.715Z,40
2016-04-27T08:14:46.765Z,76
2016-04-27T08:15:46.815Z,76
2016-04-27T08:16:46.863Z,92
2016-04-27T08:17:46.913Z,32
2016-04-27T08:18:46.962Z,40
2016-04-27T08:19:46.997Z,80
2016-04-27T08:20:47.062Z,72
2016-04-27T08:21:48.002Z,72
2016-04-27T08:22:47.162Z,72
2016-04-27T08:23:47.195Z,76
2016-04-27T08:24:47.260Z,76
2016-04-27T08:25:47.309Z,56
2016-04-27T08:26:48.547Z,88
2016-04-27T08:27:47.424Z,48
2016-04-27T08:28:47.459Z,56
2016-04-27T08:29:47.523Z,28
2016-04-27T08:30:47.542Z,24
2016-04-27T08:31:48.967Z,20
2016-04-27T08:32:47.669Z,24
2016-04-27T08:33:47.704Z,24
2016-04-27T08:34:47.738Z,20
2016-04-27T08:35:47.802Z,24
2016-04-27T08:36:50.915Z,36
2016-04-27T08:37:48.433Z,36
2016-04-27T08:38:47.952Z,36
2016-04-27T08:39:48.001Z,28
2016-04-27T08:40:48.050Z,24
2016-04-27T08:41:47.944Z,36
2016-04-27T08:42:48.165Z,48
2016-04-27T08:43:48.199Z,28
2016-04-27T08:44:48.248Z,40
2016-04-27T08:45:48.299Z,36
2016-04-27T08:46:48.379Z,36
2016-04-27T08:47:48.397Z,28
2016-04-27T08:48:48.447Z,32
2016-04-27T08:49:48.512Z,28
2016-04-27T08:50:48.546Z,36
2016-04-27T08:51:48.612Z,32
2016-04-27T08:52:49.395Z,40
2016-04-27T08:53:48.710Z,32
2016-04-27T08:54:48.759Z,32
2016-04-27T08:55:48.795Z,28
2016-04-27T08:56:48.859Z,28
2016-04-27T08:57:48.908Z,44
2016-04-27T08:58:48.959Z,36
2016-04-27T08:59:49.961Z,32
2016-04-27T09:00:49.073Z,64
2016-04-27T09:01:49.106Z,68
2016-04-27T09:02:49.203Z,68
2016-04-27T09:03:49.237Z,76
2016-04-27T09:04:49.272Z,32
2016-04-27T09:05:48.602Z,64
2016-04-27T09:06:49.386Z,80
2016-04-27T09:07:49.295Z,64
2016-04-27T09:08:49.454Z,36
2016-04-27T09:09:50.191Z,76
2016-04-27T09:10:49.616Z,80
2016-04-27T09:11:49.619Z,76
2016-04-27T09:12:49.652Z,44
2016-04-27T09:13:49.732Z,28
2016-04-27T09:14:49.766Z,24
2016-04-27T09:15:49.832Z,16
2016-04-27T09:16:50.147Z,20
2016-04-27T09:17:49.932Z,56
2016-04-27T09:18:49.981Z,32
2016-04-27T09:19:50.015Z,72
2016-04-27T09:20:50.049Z,72
2016-04-27T09:21:50.942Z,56
2016-04-27T09:22:53.960Z,60
2016-04-27T09:23:50.213Z,40
2016-04-27T09:24:50.293Z,40
2016-04-27T09:25:50.328Z,76
2016-04-27T09:26:50.986Z,68
2016-04-27T09:27:50.302Z,76
2016-04-27T09:28:50.492Z,76
2016-04-27T09:29:50.511Z,44
2016-04-27T09:30:50.591Z,40
2016-04-27T09:31:52.422Z,40
2016-04-27T09:32:50.706Z,36
2016-04-27T09:33:50.600Z,32
2016-04-27T09:34:50.805Z,28
2016-04-27T09:35:50.886Z,32
2016-04-27T09:36:53.014Z,32
2016-04-27T09:37:51.282Z,40
2016-04-27T09:38:51.035Z,28
2016-04-27T09:39:51.052Z,36
2016-04-27T09:40:51.087Z,28
2016-04-27T09:41:52.386Z,40
2016-04-27T09:42:51.202Z,28
2016-04-27T09:43:51.220Z,44
2016-04-27T09:44:51.285Z,28
2016-04-27T09:45:51.304Z,20
2016-04-27T09:46:53.494Z,20
2016-04-27T09:47:51.465Z,24
2016-04-27T09:48:51.483Z,24
2016-04-27T09:49:51.518Z,40
2016-04-27T09:50:51.599Z,24
2016-04-27T09:51:52.476Z,28
2016-04-27T09:52:50.026Z,60
2016-04-27T09:53:51.747Z,56
2016-04-27T09:54:51.765Z,64
2016-04-27T09:55:51.814Z,64
2016-04-27T09:56:52.162Z,64
2016-04-27T09:57:51.914Z,48
2016-04-27T09:58:51.995Z,36
2016-04-27T09:59:52.013Z,52
2016-04-27T10:00:52.062Z,40
2016-04-27T10:01:54.706Z,68
2016-04-27T10:02:52.193Z,40
2016-04-27T10:03:52.055Z,32
2016-04-27T10:04:52.292Z,28
2016-04-27T10:05:52.342Z,24
2016-04-27T10:06:53.954Z,24
2016-04-27T10:07:52.425Z,24
2016-04-27T10:08:52.490Z,20
2016-04-27T10:09:52.509Z,20
2016-04-27T10:10:52.574Z,16
2016-04-27T10:11:53.732Z,20
2016-04-27T10:12:52.689Z,16
2016-04-27T10:13:52.738Z,20
2016-04-27T10:14:52.757Z,16
2016-04-27T10:15:52.837Z,12
2016-04-27T10:16:53.122Z,12
2016-04-27T10:17:52.155Z,12
2016-04-27T10:18:52.955Z,12
2016-04-27T10:19:53.036Z,12
2016-04-27T10:20:53.054Z,16
2016-04-27T10:21:53.541Z,16
2016-04-27T10:22:53.014Z,32
2016-04-27T10:23:53.283Z,48
2016-04-27T10:24:53.285Z,52
2016-04-27T10:25:53.304Z,36
2016-04-27T10:26:53.384Z,52
2016-04-27T10:27:53.450Z,60
2016-04-27T10:28:53.454Z,56
2016-04-27T10:29:53.518Z,56
2016-04-27T10:30:53.584Z,48
2016-04-27T10:31:54.805Z,56
2016-04-27T10:32:53.667Z,52
2016-04-27T10:33:53.748Z,48
2016-04-27T10:34:53.751Z,48
2016-04-27T10:35:53.816Z,48
2016-04-27T10:36:55.053Z,48
2016-04-27T10:37:53.775Z,48
2016-04-27T10:38:53.980Z,48
2016-04-27T10:39:54.014Z,52
2016-04-27T10:40:54.079Z,48
2016-04-27T10:41:55.864Z,48
2016-04-27T10:42:54.163Z,52
2016-04-27T10:43:54.181Z,52
2016-04-27T10:44:54.480Z,36
2016-04-27T10:45:57.030Z,28
2016-04-27T10:46:56.205Z,24
2016-04-27T10:47:54.427Z,24
2016-04-27T10:48:54.491Z,20
2016-04-27T10:49:54.510Z,20
2016-04-27T10:50:54.575Z,16
2016-04-27T10:51:56.499Z,16
2016-04-27T10:52:55.018Z,16
2016-04-27T10:53:57.083Z,20
2016-04-27T10:54:54.789Z,20
2016-04-27T10:55:54.807Z,36
2016-04-27T10:56:54.840Z,24
2016-04-27T10:57:54.938Z,20
2016-04-27T10:58:54.956Z,36
2016-04-27T10:59:55.006Z,40
2016-04-27T11:00:55.090Z,36
2016-04-27T11:01:57.343Z,36
2016-04-27T11:02:55.205Z,28
2016-04-27T11:03:55.224Z,24
2016-04-27T11:04:55.258Z,28
2016-04-27T11:05:55.338Z,28
2016-04-27T11:06:55.777Z,28
2016-04-27T11:07:56.485Z,36
2016-04-27T11:08:56.596Z,28
2016-04-27T11:09:55.536Z,28
2016-04-27T11:10:55.555Z,28
2016-04-27T11:11:55.885Z,28
2016-04-27T11:12:55.685Z,24
2016-04-27T11:13:55.704Z,24
2016-04-27T11:14:55.784Z,32
2016-04-27T11:15:55.802Z,32
2016-04-27T11:16:56.711Z,24
2016-04-27T11:17:55.933Z,32
2016-04-27T11:18:55.951Z,28
2016-04-27T11:19:56.157Z,24
2016-04-27T11:20:56.081Z,28
2016-04-27T11:21:57.490Z,28
2016-04-27T11:22:56.618Z,32
2016-04-27T11:23:57.589Z,32
2016-04-27T11:24:56.248Z,36
2016-04-27T11:25:56.314Z,36
2016-04-27T11:26:57.925Z,36
2016-04-27T11:27:56.413Z,40
2016-04-27T11:28:56.322Z,36
2016-04-27T11:29:56.528Z,36
2016-04-27T11:30:56.609Z,40
2016-04-27T11:31:56.595Z,36
2016-04-27T11:32:56.536Z,40
2016-04-27T11:33:56.725Z,36
2016-04-27T11:34:56.760Z,40
2016-04-27T11:35:56.825Z,40
2016-04-27T11:36:56.891Z,36
2016-04-27T11:37:56.550Z,40
2016-04-27T11:38:58.864Z,36
2016-04-27T11:39:57.007Z,36
2016-04-27T11:40:57.088Z,36
2016-04-27T11:41:57.138Z,36
2016-04-27T11:42:57.157Z,36
2016-04-27T11:43:56.487Z,36
2016-04-27T11:44:57.287Z,32
2016-04-27T11:45:57.304Z,32
2016-04-27T11:46:57.354Z,32
2016-04-27T11:47:57.435Z,32
2016-04-27T11:48:57.497Z,32
2016-04-27T11:49:57.591Z,24
2016-04-27T11:50:57.717Z,24
2016-04-27T11:51:57.796Z,24
2016-04-27T11:52:58.796Z,20
2016-04-27T11:53:57.530Z,20
2016-04-27T11:54:58.002Z,16
2016-04-27T11:55:58.131Z,12
2016-04-27T11:56:58.149Z,16
2016-04-27T11:57:58.199Z,12
2016-04-27T11:58:58.289Z,12
2016-04-27T11:59:58.345Z,16
2016-04-27T12:00:58.368Z,16
2016-04-27T12:01:58.455Z,20
2016-04-27T12:02:58.510Z,20
2016-04-27T12:03:58.549Z,20
2016-04-27T12:04:58.632Z,20
2016-04-27T12:05:58.652Z,24
2016-04-27T12:06:58.719Z,24
2016-04-27T12:08:00.724Z,24
2016-04-27T12:08:58.806Z,24
2016-04-27T12:09:58.888Z,24
2016-04-27T12:10:58.908Z,24
2016-04-27T12:11:58.942Z,24
2016-04-27T12:12:59.070Z,24
2016-04-27T12:13:59.074Z,24
2016-04-27T12:14:59.124Z,24
2016-04-27T12:15:59.189Z,20
2016-04-27T12:16:58.489Z,20
2016-04-27T12:17:59.274Z,24
2016-04-27T12:18:59.307Z,24
2016-04-27T12:19:59.389Z,24
2016-04-27T12:20:59.407Z,20
2016-04-27T12:21:59.455Z,24
2016-04-27T12:22:59.974Z,20
2016-04-27T12:23:59.619Z,20
2016-04-27T12:25:00.355Z,20
2016-04-27T12:25:59.530Z,20
2016-04-27T12:26:59.735Z,20
2016-04-27T12:27:59.754Z,20
2016-04-27T12:28:59.865Z,20
2016-04-27T12:29:59.743Z,20
2016-04-27T12:30:59.918Z,16
2016-04-27T12:31:59.952Z,12
2016-04-27T12:33:00.001Z,8
2016-04-27T12:34:00.098Z,8
2016-04-27T12:35:00.116Z,8
2016-04-27T12:36:00.165Z,8
2016-04-27T12:37:00.246Z,4
2016-04-27T12:38:00.624Z,4
2016-04-27T12:39:00.659Z,4
2016-04-27T12:40:00.380Z,4
2016-04-27T12:41:00.445Z,4
2016-04-27T12:42:00.448Z,0
2016-04-27T12:43:00.528Z,4
2016-04-27T12:44:00.547Z,4
2016-04-27T12:45:02.050Z,4
2016-04-27T12:46:00.692Z,8
2016-04-27T12:47:00.711Z,8
2016-04-27T12:48:00.776Z,8
2016-04-27T12:49:00.872Z,8
2016-04-27T12:50:00.703Z,8
2016-04-27T12:51:00.941Z,12
2016-04-27T12:52:01.005Z,12
2016-04-27T12:53:01.305Z,12
2016-04-27T12:54:01.089Z,12
2016-04-27T12:55:01.138Z,16
2016-04-27T12:56:01.001Z,12
2016-04-27T12:57:01.238Z,16
2016-04-27T12:58:01.251Z,16
2016-04-27T12:59:01.301Z,16
2016-04-27T13:00:01.381Z,16
2016-04-27T13:01:01.226Z,16
2016-04-27T13:02:01.449Z,16
2016-04-27T13:03:01.545Z,20
2016-04-27T13:04:01.564Z,24
2016-04-27T13:05:01.613Z,20
2016-04-27T13:06:01.694Z,24
2016-04-27T13:07:01.727Z,24
2016-04-27T13:08:01.324Z,24
2016-04-27T13:09:02.780Z,24
2016-04-27T13:10:01.861Z,24
2016-04-27T13:11:01.942Z,24
2016-04-27T13:12:01.961Z,24
2016-04-27T13:13:01.994Z,28
2016-04-27T13:14:02.091Z,28
2016-04-27T13:15:02.109Z,28
2016-04-27T13:16:02.142Z,28
2016-04-27T13:17:02.255Z,24
2016-04-27T13:18:02.273Z,24
2016-04-27T13:19:02.308Z,28
2016-04-27T13:20:02.372Z,24
2016-04-27T13:21:02.438Z,24
2016-04-27T13:22:02.455Z,24
2016-04-27T13:23:03.365Z,24
2016-04-27T13:24:03.305Z,24
2016-04-27T13:25:02.635Z,24
2016-04-27T13:26:02.701Z,28
2016-04-27T13:27:02.688Z,24
2016-04-27T13:28:02.769Z,28
2016-04-27T13:29:02.834Z,28
2016-04-27T13:30:02.837Z,24
2016-04-27T13:31:02.901Z,24
2016-04-27T13:32:02.982Z,28
2016-04-27T13:33:03.001Z,24
2016-04-27T13:34:03.050Z,20
2016-04-27T13:35:03.115Z,24
2016-04-27T13:36:03.165Z,24
2016-04-27T13:37:03.356Z,24
2016-04-27T13:38:03.451Z,20
2016-04-27T13:39:03.423Z,24
2016-04-27T13:40:03.379Z,24
2016-04-27T13:41:02.647Z,28
2016-04-27T13:42:03.432Z,24
2016-04-27T13:43:03.528Z,28
2016-04-27T13:44:03.562Z,24
2016-04-27T13:45:03.595Z,28
2016-04-27T13:46:03.676Z,28
2016-04-27T13:47:03.726Z,28
2016-04-27T13:48:03.025Z,16
2016-04-27T13:49:03.793Z,20
2016-04-27T13:50:03.859Z,16
2016-04-27T13:51:03.924Z,16
2016-04-27T13:52:03.943Z,24
2016-04-27T13:53:04.383Z,32
2016-04-27T13:54:04.901Z,20
2016-04-27T13:55:04.091Z,16
2016-04-27T13:56:04.125Z,16
2016-04-27T13:57:04.222Z,16
2016-04-27T13:58:03.959Z,16
2016-04-27T13:59:04.305Z,20
2016-04-27T14:00:04.401Z,28
2016-04-27T14:01:04.420Z,36
2016-04-27T14:02:04.437Z,36
2016-04-27T14:03:04.503Z,24
2016-04-27T14:04:04.585Z,32
2016-04-27T14:05:04.587Z,32
2016-04-27T14:06:04.636Z,36
2016-04-27T14:07:04.748Z,32
2016-04-27T14:08:04.798Z,20
2016-04-27T14:09:05.473Z,16
2016-04-27T14:10:04.881Z,32
2016-04-27T14:11:04.978Z,28
2016-04-27T14:12:04.778Z,32
2016-04-27T14:13:05.031Z,36
2016-04-27T14:14:04.298Z,28
2016-04-27T14:15:05.114Z,20
2016-04-27T14:16:05.132Z,28
2016-04-27T14:17:05.191Z,28
2016-04-27T14:18:05.263Z,28
2016-04-27T14:19:05.298Z,28
2016-04-27T14:20:05.176Z,32
2016-04-27T14:21:05.428Z,28
2016-04-27T14:22:05.461Z,12
2016-04-27T14:23:05.625Z,16
2016-04-27T14:24:05.269Z,16
2016-04-27T14:25:05.630Z,28
2016-04-27T14:26:05.650Z,28
2016-04-27T14:27:05.699Z,16
2016-04-27T14:28:05.733Z,12
2016-04-27T14:29:05.830Z,12
2016-04-27T14:30:05.863Z,12
2016-04-27T14:31:05.882Z,12
2016-04-27T14:32:05.977Z,16
2016-04-27T14:33:06.027Z,32
2016-04-27T14:34:06.030Z,32